Time;durP1;ratioP1;P1;durP2;ratioP2;P2;SDS_P1;SDS_P2;PMS_P1;PMS_P2;Temp;Humidity;BMP_temperature;BMP_pressure;BME280_temperature;BME280_humidity;BME280_pressure;Samples;Min_cycle;Max_cycle;Signal;HPM_P1;HPM_P2
2021/11/28 00:01:18;;;;;;;7.70;3.70;;;;;;;-0.39;88.54;98753.05;103731;1314;61216;-80
2021/11/28 00:03:46;;;;;;;9.20;4.60;;;;;;;-0.41;88.44;98753.56;105034;1316;74607;-81
2021/11/28 00:06:27;;;;;;;10.10;3.90;;;;;;;-0.44;88.53;98751.20;105159;1315;72873;-81
2021/11/28 00:11:36;;;;;;;7.40;3.20;;;;;;;-0.48;88.42;98757.17;105049;1315;59637;-81
2021/11/28 00:14:08;;;;;;;11.50;3.80;;;;;;;-0.51;88.49;98759.98;105143;1315;60400;-81
2021/11/28 00:16:35;;;;;;;9.70;3.70;;;;;;;-0.56;88.47;98760.45;105103;1315;75114;-81
2021/11/28 00:19:04;;;;;;;8.00;3.30;;;;;;;-0.63;88.47;98762.16;104996;1315;73003;-81
2021/11/28 00:21:32;;;;;;;6.50;3.40;;;;;;;-0.70;88.64;98762.33;105006;1316;72970;-81
2021/11/28 00:23:59;;;;;;;8.30;3.60;;;;;;;-0.76;88.58;98764.70;105197;1315;60924;-81
2021/11/28 00:26:27;;;;;;;11.30;3.60;;;;;;;-0.83;88.55;98762.33;105061;1315;61372;-81
2021/11/28 00:28:53;;;;;;;13.30;4.70;;;;;;;-0.88;88.55;98759.41;104037;1312;74957;-79
2021/11/28 00:31:20;;;;;;;8.70;4.20;;;;;;;-0.92;88.75;98760.16;103235;1312;71475;-80
2021/11/28 00:33:47;;;;;;;11.30;4.50;;;;;;;-0.97;88.85;98757.13;103260;1316;73669;-80
2021/11/28 00:36:13;;;;;;;8.70;4.30;;;;;;;-1.03;88.92;98755.83;103235;1315;62239;-80
2021/11/28 00:38:40;;;;;;;8.90;4.20;;;;;;;-1.09;89.38;98755.84;103328;1312;61352;-80
2021/11/28 00:41:07;;;;;;;7.40;3.90;;;;;;;-1.12;89.95;98757.02;103192;1316;76103;-80
2021/11/28 00:43:34;;;;;;;7.50;4.00;;;;;;;-1.15;90.23;98757.98;103035;1316;72429;-80
2021/11/28 00:46:00;;;;;;;8.10;3.50;;;;;;;-1.19;90.09;98756.48;102927;1315;72967;-78
2021/11/28 00:48:30;;;;;;;10.50;4.00;;;;;;;-1.23;90.23;98758.27;102926;1315;61294;-80
2021/11/28 00:53:44;;;;;;;9.80;4.10;;;;;;;-1.30;90.16;98762.95;102888;1316;76362;-78
2021/11/28 00:56:11;;;;;;;11.20;3.90;;;;;;;-1.33;90.36;98766.02;102964;1315;72511;-80
2021/11/28 00:58:38;;;;;;;9.30;3.70;;;;;;;-1.36;90.37;98770.78;103021;1315;73880;-80
2021/11/28 01:01:05;;;;;;;6.80;3.90;;;;;;;-1.41;90.50;98777.85;102828;1316;61269;-79
2021/11/28 01:03:32;;;;;;;9.20;3.50;;;;;;;-1.45;90.91;98776.64;103109;1315;61657;-80
2021/11/28 01:05:59;;;;;;;6.50;3.60;;;;;;;-1.49;90.83;98777.77;103104;1315;74932;-79
2021/11/28 01:08:25;;;;;;;6.60;3.60;;;;;;;-1.54;90.90;98777.66;103038;1315;72679;-78
2021/11/28 01:10:52;;;;;;;9.30;4.80;;;;;;;-1.58;91.15;98784.77;102762;1315;72927;-79
2021/11/28 01:13:19;;;;;;;8.50;3.70;;;;;;;-1.60;91.36;98787.05;102769;1316;62739;-80
2021/11/28 01:15:46;;;;;;;7.50;4.40;;;;;;;-1.61;91.54;98786.39;103083;1315;61264;-79
2021/11/28 01:18:13;;;;;;;9.40;4.40;;;;;;;-1.63;91.51;98793.78;103068;1316;75024;-80
2021/11/28 01:20:39;;;;;;;8.70;3.70;;;;;;;-1.62;91.64;98797.16;103034;1315;72459;-80
2021/11/28 01:23:06;;;;;;;8.60;3.50;;;;;;;-1.61;91.79;98797.47;102995;1315;71877;-80
2021/11/28 01:25:32;;;;;;;8.50;4.10;;;;;;;-1.62;91.72;98800.61;103020;1316;61727;-79
2021/11/28 01:27:59;;;;;;;5.50;3.20;;;;;;;-1.63;91.64;98805.23;103063;1315;61331;-80
2021/11/28 01:30:25;;;;;;;7.10;3.50;;;;;;;-1.65;91.95;98803.09;103150;1312;75069;-81
2021/11/28 01:32:52;;;;;;;6.60;3.70;;;;;;;-1.65;92.17;98806.95;103226;1316;72347;-80
2021/11/28 01:35:19;;;;;;;7.90;3.80;;;;;;;-1.67;92.34;98807.94;102954;1316;73365;-79
2021/11/28 01:37:46;;;;;;;8.50;4.40;;;;;;;-1.63;92.55;98807.82;102819;1315;61391;-79
2021/11/28 01:40:15;;;;;;;9.80;3.90;;;;;;;-1.59;92.86;98813.21;102658;1315;61559;-79
2021/11/28 01:42:53;;;;;;;14.50;3.80;;;;;;;-1.54;92.74;98811.88;102627;1313;76098;-80
2021/11/28 01:45:21;;;;;;;6.10;3.30;;;;;;;-1.49;92.95;98812.25;102782;1315;71483;-80
2021/11/28 01:47:49;;;;;;;11.00;3.60;;;;;;;-1.44;93.03;98812.27;102671;1315;74217;-80
2021/11/28 01:50:16;;;;;;;6.90;2.90;;;;;;;-1.39;92.72;98813.02;102718;1316;62532;-81
2021/11/28 01:52:43;;;;;;;6.80;3.20;;;;;;;-1.35;92.63;98810.79;102775;1313;61316;-80
2021/11/28 01:55:15;;;;;;;7.10;2.50;;;;;;;-1.32;92.61;98811.01;102793;1315;75019;-81
2021/11/28 01:57:43;;;;;;;6.40;3.40;;;;;;;-1.29;92.63;98815.38;102958;1315;71520;-80
2021/11/28 02:00:14;;;;;;;6.90;3.60;;;;;;;-1.22;92.74;98813.69;102703;1315;74420;-81
2021/11/28 02:02:45;;;;;;;7.60;4.60;;;;;;;-1.14;92.76;98817.08;102830;1315;61596;-80
2021/11/28 02:05:14;;;;;;;7.80;3.40;;;;;;;-1.06;92.52;98818.41;102898;1315;62066;-80
2021/11/28 02:07:42;;;;;;;8.30;3.10;;;;;;;-0.99;92.52;98816.37;102851;1315;75101;-81
2021/11/28 02:10:11;;;;;;;4.70;2.80;;;;;;;-0.95;92.34;98811.21;102951;1315;71426;-81
2021/11/28 02:12:38;;;;;;;9.40;2.80;;;;;;;-0.90;92.23;98814.64;102763;1315;71920;-81
2021/11/28 02:15:06;;;;;;;6.70;3.40;;;;;;;-0.89;91.75;98812.41;102832;1313;61314;-79
2021/11/28 02:17:33;;;;;;;8.90;3.30;;;;;;;-0.87;91.61;98807.67;102811;1315;61421;-81
2021/11/28 02:20:04;;;;;;;8.50;3.70;;;;;;;-0.86;91.40;98802.35;102683;1315;75945;-82
2021/11/28 02:22:30;;;;;;;7.40;3.50;;;;;;;-0.86;91.28;98802.71;102863;1315;72664;-82
2021/11/28 02:24:57;;;;;;;7.40;3.20;;;;;;;-0.87;91.22;98800.58;102830;1315;72939;-82
2021/11/28 02:27:24;;;;;;;4.60;2.50;;;;;;;-0.90;90.96;98802.41;102927;1315;61376;-82
2021/11/28 02:29:50;;;;;;;6.20;3.50;;;;;;;-0.94;90.88;98801.14;103103;1315;63909;-83
2021/11/28 02:32:17;;;;;;;6.30;2.90;;;;;;;-1.00;90.77;98800.46;102765;1312;75037;-81
2021/11/28 02:34:43;;;;;;;8.30;3.50;;;;;;;-1.06;90.95;98800.52;102745;1315;71583;-79
2021/11/28 02:37:10;;;;;;;9.10;3.60;;;;;;;-1.11;91.16;98799.57;102861;1315;72849;-81
2021/11/28 02:39:37;;;;;;;8.30;3.90;;;;;;;-1.14;91.02;98801.00;102761;1315;62508;-79
2021/11/28 02:42:04;;;;;;;7.50;3.80;;;;;;;-1.17;91.14;98796.90;102782;1315;61461;-80
2021/11/28 02:44:33;;;;;;;8.40;2.90;;;;;;;-1.19;91.23;98792.61;102676;1315;74751;-83
2021/11/28 02:47:02;;;;;;;8.80;3.20;;;;;;;-1.20;91.40;98793.06;102979;1315;72377;-82
2021/11/28 02:49:29;;;;;;;12.50;3.50;;;;;;;-1.23;91.29;98797.95;102586;1316;73010;-82
2021/11/28 02:51:55;;;;;;;9.40;3.50;;;;;;;-1.26;91.47;98798.89;102949;1315;61426;-82
2021/11/28 02:54:23;;;;;;;8.00;3.50;;;;;;;-1.29;91.45;98799.41;102569;1315;61261;-82
2021/11/28 02:56:50;;;;;;;10.50;3.10;;;;;;;-1.32;91.48;98799.66;102816;1312;75343;-82
2021/11/28 02:59:17;;;;;;;6.10;2.90;;;;;;;-1.35;91.40;98801.75;102874;1315;72450;-81
2021/11/28 03:01:44;;;;;;;6.00;3.20;;;;;;;-1.40;91.25;98803.28;102750;1315;74059;-81
2021/11/28 03:04:12;;;;;;;11.40;3.60;;;;;;;-1.44;91.48;98803.10;102713;1315;62371;-80
2021/11/28 03:06:38;;;;;;;9.10;3.30;;;;;;;-1.46;91.71;98804.27;102877;1314;61407;-80
2021/11/28 03:09:05;;;;;;;8.60;3.80;;;;;;;-1.46;91.89;98805.30;102875;1315;74955;-80
2021/11/28 03:11:32;;;;;;;8.00;3.30;;;;;;;-1.44;92.05;98807.27;102622;1315;72389;-80
2021/11/28 03:14:01;;;;;;;12.00;3.70;;;;;;;-1.43;91.96;98804.42;102642;1315;73074;-80
2021/11/28 03:16:28;;;;;;;3.90;2.20;;;;;;;-1.43;92.14;98806.24;102858;1315;61131;-80
2021/11/28 03:18:55;;;;;;;6.60;3.10;;;;;;;-1.42;92.18;98806.92;102838;1315;62382;-80
2021/11/28 03:21:28;;;;;;;8.40;3.10;;;;;;;-1.44;91.95;98805.33;102739;1315;75226;-80
2021/11/28 03:23:58;;;;;;;9.40;3.40;;;;;;;-1.45;91.88;98805.08;102812;1315;71617;-81
2021/11/28 03:26:31;;;;;;;4.10;2.60;;;;;;;-1.46;92.03;98802.95;102975;1315;73142;-83
2021/11/28 03:28:59;;;;;;;6.10;3.20;;;;;;;-1.47;92.20;98804.58;102958;1315;61406;-80
2021/11/28 03:31:28;;;;;;;10.80;3.70;;;;;;;-1.45;92.31;98803.88;102783;1315;61948;-80
2021/11/28 03:33:56;;;;;;;5.90;3.10;;;;;;;-1.43;92.28;98800.39;102951;1315;74629;-81
2021/11/28 03:36:25;;;;;;;6.20;2.80;;;;;;;-1.41;92.28;98798.11;102817;1315;71523;-80
2021/11/28 03:38:54;;;;;;;9.00;4.00;;;;;;;-1.39;92.22;98801.19;102793;1315;74139;-81
2021/11/28 03:41:23;;;;;;;10.10;3.90;;;;;;;-1.36;92.27;98798.55;102424;1318;61990;-81
2021/11/28 03:43:51;;;;;;;7.80;3.40;;;;;;;-1.33;92.58;98799.46;102947;1312;61664;-81
2021/11/28 03:46:18;;;;;;;6.70;2.80;;;;;;;-1.30;92.72;98799.34;102759;1315;75267;-81
2021/11/28 03:48:45;;;;;;;7.80;3.50;;;;;;;-1.27;92.84;98801.25;102787;1315;71387;-81
2021/11/28 03:51:12;;;;;;;6.70;3.10;;;;;;;-1.24;92.78;98802.03;102622;1315;75408;-81
2021/11/28 03:53:38;;;;;;;7.00;3.30;;;;;;;-1.22;92.82;98800.30;102730;1315;61347;-80
2021/11/28 03:56:08;;;;;;;4.70;3.20;;;;;;;-1.21;92.53;98799.70;102568;1315;61277;-82
2021/11/28 03:58:36;;;;;;;7.90;2.70;;;;;;;-1.19;92.79;98798.86;102646;1316;75106;-79
2021/11/28 04:01:05;;;;;;;10.10;3.70;;;;;;;-1.18;92.59;98796.69;102885;1315;71339;-80
2021/11/28 04:03:33;;;;;;;10.20;4.20;;;;;;;-1.17;92.68;98793.09;103023;1315;74375;-80
2021/11/28 04:06:00;;;;;;;11.00;3.90;;;;;;;-1.14;92.65;98795.60;102611;1315;61474;-81
2021/11/28 04:08:27;;;;;;;9.60;3.30;;;;;;;-1.12;92.61;98794.20;102807;1315;61319;-80
2021/11/28 04:10:53;;;;;;;8.90;3.90;;;;;;;-1.09;92.56;98797.02;102719;1315;61362;-80
2021/11/28 04:13:20;;;;;;;5.10;2.90;;;;;;;-1.08;92.68;98794.27;102688;1312;71421;-80
2021/11/28 04:15:47;;;;;;;8.40;3.50;;;;;;;-1.07;92.46;98795.21;102458;1315;73162;-81
2021/11/28 04:18:14;;;;;;;6.10;2.10;;;;;;;-1.06;92.70;98796.70;102806;1315;61330;-80
2021/11/28 04:20:42;;;;;;;7.70;1.70;;;;;;;-1.04;92.82;98795.61;102685;1315;61351;-80
2021/11/28 04:23:09;;;;;;;5.00;2.30;;;;;;;-1.03;92.85;98794.96;102821;1315;75972;-80
2021/11/28 04:25:36;;;;;;;6.20;2.50;;;;;;;-1.00;92.96;98797.71;102727;1315;73407;-80
2021/11/28 04:28:04;;;;;;;7.30;3.20;;;;;;;-0.97;92.93;98797.46;102803;1315;72960;-80
2021/11/28 04:30:31;;;;;;;7.90;3.50;;;;;;;-0.94;92.67;98795.40;102682;1315;62080;-80
2021/11/28 04:32:58;;;;;;;6.70;3.40;;;;;;;-0.91;92.63;98797.20;102849;1315;61600;-80
2021/11/28 04:35:24;;;;;;;12.90;3.30;;;;;;;-0.88;92.54;98795.96;102765;1315;75366;-80
2021/11/28 04:37:51;;;;;;;8.00;3.40;;;;;;;-0.84;92.58;98795.38;102615;1316;71462;-79
2021/11/28 04:40:18;;;;;;;8.30;3.60;;;;;;;-0.80;92.56;98792.98;102663;1315;72983;-79
2021/11/28 04:42:45;;;;;;;7.60;3.40;;;;;;;-0.76;92.55;98792.76;102707;1315;61084;-79
2021/11/28 04:45:12;;;;;;;5.80;2.80;;;;;;;-0.73;92.52;98795.12;102802;1315;61244;-79
2021/11/28 04:47:40;;;;;;;8.90;2.90;;;;;;;-0.71;92.48;98795.95;102704;1315;75917;-79
2021/11/28 04:50:09;;;;;;;9.50;3.40;;;;;;;-0.70;92.44;98797.58;102647;1315;71409;-79
2021/11/28 04:52:36;;;;;;;9.20;3.00;;;;;;;-0.69;92.30;98795.54;102917;1312;72882;-80
2021/11/28 04:55:05;;;;;;;8.30;3.00;;;;;;;-0.67;92.32;98797.30;102664;1315;62593;-80
2021/11/28 04:57:33;;;;;;;8.00;3.40;;;;;;;-0.65;92.23;98798.80;102610;1315;61319;-79
2021/11/28 04:59:59;;;;;;;8.60;3.60;;;;;;;-0.63;92.16;98796.14;102805;1315;75412;-81
2021/11/28 05:02:26;;;;;;;4.80;3.10;;;;;;;-0.60;92.05;98802.91;102700;1315;71447;-79
2021/11/28 05:04:53;;;;;;;6.20;3.10;;;;;;;-0.59;92.22;98802.77;102639;1315;74165;-79
2021/11/28 05:07:24;;;;;;;6.70;3.10;;;;;;;-0.56;92.25;98804.92;102909;1315;61397;-79
2021/11/28 05:09:51;;;;;;;4.70;2.50;;;;;;;-0.55;92.19;98806.66;102342;1315;61209;-79
2021/11/28 05:12:17;;;;;;;11.30;3.60;;;;;;;-0.52;92.19;98806.23;102755;1315;74986;-79
2021/11/28 05:14:44;;;;;;;4.80;3.10;;;;;;;-0.49;92.18;98811.33;102539;1315;61330;-80
2021/11/28 05:17:10;;;;;;;6.80;3.40;;;;;;;-0.46;92.09;98814.00;102682;1315;73110;-79
2021/11/28 05:19:37;;;;;;;5.10;2.70;;;;;;;-0.44;92.10;98815.84;102714;1315;61958;-79
2021/11/28 05:22:03;;;;;;;10.10;2.80;;;;;;;-0.42;92.08;98817.92;102594;1315;61416;-78
2021/11/28 05:24:30;;;;;;;6.40;3.10;;;;;;;-0.41;92.00;98820.23;102827;1312;76780;-79
2021/11/28 05:26:57;;;;;;;7.20;2.90;;;;;;;-0.39;91.94;98817.82;102697;1315;71357;-79
2021/11/28 05:29:23;;;;;;;6.90;3.20;;;;;;;-0.37;91.84;98820.21;102684;1313;71866;-79
2021/11/28 05:31:50;;;;;;;9.90;3.40;;;;;;;-0.35;91.85;98824.02;102794;1315;61458;-80
2021/11/28 05:34:17;;;;;;;5.50;2.50;;;;;;;-0.32;91.71;98828.80;102817;1315;61854;-80
2021/11/28 05:36:43;;;;;;;8.10;2.90;;;;;;;-0.29;91.81;98834.22;102628;1315;75955;-81
2021/11/28 05:39:10;;;;;;;5.10;2.90;;;;;;;-0.27;91.78;98832.99;102569;1316;72528;-81
2021/11/28 05:41:37;;;;;;;9.20;3.10;;;;;;;-0.26;91.71;98832.02;102619;1315;74093;-81
2021/11/28 05:44:04;;;;;;;8.10;3.20;;;;;;;-0.26;91.74;98837.39;102779;1315;61346;-82
2021/11/28 05:46:31;;;;;;;8.40;3.60;;;;;;;-0.24;91.69;98841.84;102698;1315;60371;-82
2021/11/28 05:48:57;;;;;;;8.30;3.60;;;;;;;-0.22;91.55;98845.52;102607;1316;75919;-82
2021/11/28 05:51:24;;;;;;;8.20;3.10;;;;;;;-0.21;91.66;98846.44;102729;1315;72745;-80
2021/11/28 05:53:50;;;;;;;7.50;3.00;;;;;;;-0.20;91.62;98852.40;102774;1315;71522;-81
2021/11/28 05:56:17;;;;;;;8.20;3.30;;;;;;;-0.19;91.59;98850.75;102552;1316;61945;-85
2021/11/28 05:58:44;;;;;;;8.30;3.80;;;;;;;-0.18;91.63;98847.95;102699;1315;61290;-81
2021/11/28 06:01:11;;;;;;;5.40;2.80;;;;;;;-0.18;91.67;98850.16;102745;1315;76877;-82
2021/11/28 06:03:38;;;;;;;10.50;3.70;;;;;;;-0.18;91.76;98853.58;102914;1315;70318;-82
2021/11/28 06:06:04;;;;;;;7.70;3.80;;;;;;;-0.16;91.67;98851.55;102739;1315;73353;-81
2021/11/28 06:08:32;;;;;;;8.80;3.70;;;;;;;-0.14;91.67;98854.66;103102;1315;61754;-81
2021/11/28 06:10:58;;;;;;;6.20;3.00;;;;;;;-0.12;91.66;98854.80;102591;1315;61833;-81
2021/11/28 06:13:25;;;;;;;6.40;3.30;;;;;;;-0.10;91.62;98860.31;102534;1313;73905;-81
2021/11/28 06:15:51;;;;;;;7.20;3.70;;;;;;;-0.09;91.59;98856.94;102681;1314;72318;-80
2021/11/28 06:18:18;;;;;;;8.20;3.70;;;;;;;-0.09;91.56;98863.48;102688;1315;74391;-81
2021/11/28 06:20:45;;;;;;;14.00;3.50;;;;;;;-0.09;91.68;98861.95;102774;1315;61770;-81
2021/11/28 06:23:13;;;;;;;6.70;3.50;;;;;;;-0.10;91.50;98863.23;102759;1315;61595;-81
2021/11/28 06:25:39;;;;;;;8.10;3.90;;;;;;;-0.10;91.72;98866.31;102728;1316;76039;-81
2021/11/28 06:28:26;;;;;;;11.70;4.10;;;;;;;-0.08;91.61;98868.29;102644;1316;71664;-82
2021/11/28 06:30:53;;;;;;;7.20;3.50;;;;;;;-0.08;91.62;98868.23;102797;1315;61391;-80
2021/11/28 06:33:19;;;;;;;7.30;4.30;;;;;;;-0.07;91.47;98869.17;102686;1315;61206;-80
2021/11/28 06:35:46;;;;;;;10.50;4.70;;;;;;;-0.06;91.51;98868.05;102505;1315;61433;-80
2021/11/28 06:38:13;;;;;;;8.90;4.20;;;;;;;-0.06;91.54;98864.95;102654;1314;75174;-81
2021/11/28 06:40:39;;;;;;;7.50;4.20;;;;;;;-0.06;91.47;98866.86;102855;1315;71548;-82
2021/11/28 06:43:12;;;;;;;7.60;4.40;;;;;;;-0.06;91.51;98865.48;102728;1315;73459;-81
2021/11/28 06:45:39;;;;;;;9.10;4.50;;;;;;;-0.06;91.42;98867.23;102560;1315;61337;-81
2021/11/28 06:48:06;;;;;;;8.30;3.90;;;;;;;-0.07;91.53;98870.58;103023;1314;61810;-80
2021/11/28 06:50:32;;;;;;;10.30;4.30;;;;;;;-0.07;91.57;98872.20;103045;1316;74976;-81
2021/11/28 06:53:00;;;;;;;8.90;4.90;;;;;;;-0.08;91.75;98867.77;103245;1315;71611;-81
2021/11/28 06:55:26;;;;;;;6.10;3.70;;;;;;;-0.09;91.77;98868.37;102810;1317;74911;-81
2021/11/28 06:57:55;;;;;;;8.10;3.80;;;;;;;-0.10;91.78;98861.80;103209;1312;61232;-81
2021/11/28 07:00:22;;;;;;;7.10;3.40;;;;;;;-0.10;91.88;98860.13;103226;1315;62020;-80
2021/11/28 07:02:49;;;;;;;7.20;3.30;;;;;;;-0.11;91.92;98855.35;103409;1314;76234;-80
2021/11/28 07:05:16;;;;;;;7.50;4.30;;;;;;;-0.11;92.02;98859.55;103307;1315;72539;-81
2021/11/28 07:07:42;;;;;;;8.10;4.20;;;;;;;-0.11;92.14;98859.82;103009;1315;73937;-79
2021/11/28 07:10:09;;;;;;;13.60;4.80;;;;;;;-0.10;91.97;98860.15;103120;1315;61330;-81
2021/11/28 07:12:37;;;;;;;9.50;4.10;;;;;;;-0.09;91.86;98863.66;103257;1315;60835;-80
2021/11/28 07:15:03;;;;;;;10.30;4.10;;;;;;;-0.07;91.84;98866.98;103268;1315;75125;-82
2021/11/28 07:17:31;;;;;;;12.10;4.80;;;;;;;-0.07;91.79;98874.04;103200;1315;71275;-80
2021/11/28 07:19:57;;;;;;;9.20;4.30;;;;;;;-0.04;91.93;98878.16;103055;1315;73975;-80
2021/11/28 07:22:24;;;;;;;6.70;3.90;;;;;;;-0.00;91.80;98888.19;103140;1315;61350;-80
2021/11/28 07:24:50;;;;;;;6.40;3.20;;;;;;;0.03;91.64;98893.30;103221;1315;61308;-80
2021/11/28 07:27:17;;;;;;;8.30;3.60;;;;;;;0.05;91.72;98897.11;103165;1315;74145;-80
2021/11/28 07:29:44;;;;;;;9.70;3.30;;;;;;;0.05;91.61;98895.70;103229;1315;72644;-80
2021/11/28 07:32:10;;;;;;;7.70;4.40;;;;;;;0.07;91.70;98900.88;103312;1315;61426;-80
2021/11/28 07:34:37;;;;;;;8.90;4.70;;;;;;;0.08;91.70;98902.61;103136;1313;62561;-82
2021/11/28 07:37:04;;;;;;;9.00;4.40;;;;;;;0.10;91.82;98908.18;103204;1315;61063;-80
2021/11/28 07:39:31;;;;;;;7.90;4.50;;;;;;;0.12;91.83;98911.02;103116;1315;75985;-81
2021/11/28 07:41:57;;;;;;;9.10;5.20;;;;;;;0.13;91.79;98915.40;103203;1315;72409;-81
2021/11/28 07:44:24;;;;;;;7.20;4.10;;;;;;;0.13;91.78;98917.27;102992;1315;73955;-81
2021/11/28 07:46:51;;;;;;;10.80;4.80;;;;;;;0.14;91.70;98920.65;103154;1315;61440;-81
2021/11/28 07:49:17;;;;;;;9.60;5.20;;;;;;;0.15;91.86;98922.98;103247;1315;61196;-78
2021/11/28 07:51:45;;;;;;;8.60;5.20;;;;;;;0.19;91.85;98924.66;103051;1315;74500;-80
2021/11/28 07:54:12;;;;;;;10.30;5.30;;;;;;;0.23;91.81;98918.73;103360;1315;72678;-78
2021/11/28 07:56:38;;;;;;;10.80;5.70;;;;;;;0.28;91.55;98914.27;103140;1315;61406;-79
2021/11/28 07:59:06;;;;;;;8.70;4.90;;;;;;;0.34;91.56;98909.83;103056;1315;62521;-78
2021/11/28 08:01:32;;;;;;;7.80;4.40;;;;;;;0.39;91.31;98911.92;103258;1315;61365;-78
2021/11/28 08:03:59;;;;;;;9.50;5.20;;;;;;;0.43;91.12;98906.98;103289;1315;76042;-77
2021/11/28 08:06:26;;;;;;;12.20;4.60;;;;;;;0.47;90.95;98904.71;103280;1312;72576;-77
2021/11/28 08:08:52;;;;;;;9.40;4.50;;;;;;;0.51;90.71;98905.40;103312;1315;71989;-78
2021/11/28 08:11:19;;;;;;;11.30;5.10;;;;;;;0.53;90.56;98909.81;103063;1316;63252;-78
2021/11/28 08:13:48;;;;;;;8.50;4.60;;;;;;;0.58;90.51;98908.84;103144;1315;61423;-78
2021/11/28 08:16:16;;;;;;;8.80;5.10;;;;;;;0.63;90.42;98908.27;103108;1314;75045;-78
2021/11/28 08:18:43;;;;;;;8.50;5.10;;;;;;;0.69;90.06;98907.66;103141;1316;72396;-78
2021/11/28 08:21:10;;;;;;;6.90;4.30;;;;;;;0.76;89.98;98906.08;103017;1315;72011;-75
2021/11/28 08:23:37;;;;;;;11.40;5.00;;;;;;;0.83;89.56;98915.02;103030;1315;61341;-77
2021/11/28 08:26:04;;;;;;;9.50;5.30;;;;;;;0.88;89.52;98909.44;103066;1312;61418;-78
2021/11/28 08:28:31;;;;;;;7.40;2.50;;;;;;;0.94;89.38;98915.05;102674;1315;74715;-78
2021/11/28 08:31:01;;;;;;;10.10;4.20;;;;;;;0.99;88.73;98919.28;102514;1315;72582;-77
2021/11/28 08:33:32;;;;;;;14.80;5.90;;;;;;;1.05;88.82;98920.58;102439;1315;73554;-77
2021/11/28 08:35:59;;;;;;;8.80;4.50;;;;;;;1.12;89.01;98919.30;102482;1315;62822;-77
2021/11/28 08:38:27;;;;;;;10.60;4.80;;;;;;;1.21;89.05;98919.63;102419;1315;62340;-77
2021/11/28 08:40:55;;;;;;;6.70;3.40;;;;;;;1.30;88.84;98920.47;102498;1315;73987;-77
2021/11/28 08:43:22;;;;;;;9.60;4.80;;;;;;;1.37;88.55;98922.64;102247;1315;72211;-76
2021/11/28 08:45:49;;;;;;;6.20;2.70;;;;;;;1.46;88.34;98922.76;102391;1316;73965;-76
2021/11/28 08:48:16;;;;;;;10.40;4.80;;;;;;;1.55;88.21;98920.42;102826;1315;63405;-77
2021/11/28 08:50:42;;;;;;;12.60;4.90;;;;;;;1.66;87.90;98919.82;103076;1315;61421;-77
2021/11/28 08:53:09;;;;;;;12.90;6.20;;;;;;;1.75;87.15;98918.00;102525;1315;73856;-77
2021/11/28 08:55:37;;;;;;;9.80;4.70;;;;;;;1.85;87.04;98911.21;102539;1315;71543;-77
2021/11/28 08:58:04;;;;;;;12.20;5.40;;;;;;;1.95;87.05;98910.98;102402;1315;72791;-76
2021/11/28 09:00:31;;;;;;;5.90;3.00;;;;;;;2.04;86.61;98916.28;102558;1315;62383;-77
2021/11/28 09:02:58;;;;;;;13.40;5.50;;;;;;;2.11;85.76;98920.98;102509;1315;61331;-77
2021/11/28 09:05:25;;;;;;;10.70;4.80;;;;;;;2.17;85.79;98927.48;102518;1315;74697;-76
2021/11/28 09:07:52;;;;;;;8.90;5.00;;;;;;;2.22;85.05;98929.44;102468;1315;72512;-76
2021/11/28 09:10:20;;;;;;;10.00;5.10;;;;;;;2.30;85.25;98931.55;102463;1315;73127;-76
2021/11/28 09:12:46;;;;;;;7.20;4.00;;;;;;;2.35;84.68;98928.65;102544;1315;61335;-77
2021/11/28 09:15:14;;;;;;;7.30;4.70;;;;;;;2.40;84.19;98921.19;102925;1315;62021;-75
2021/11/28 09:17:47;;;;;;;13.30;5.30;;;;;;;2.46;84.36;98921.41;102533;1315;75915;-75
2021/11/28 09:20:14;;;;;;;12.20;5.50;;;;;;;2.51;83.51;98924.34;102618;1315;71549;-77
2021/11/28 09:25:19;;;;;;;11.10;5.60;;;;;;;2.65;83.55;98922.11;102558;1315;61433;-77
2021/11/28 09:27:49;;;;;;;12.10;5.80;;;;;;;2.72;83.10;98928.05;102462;1315;61332;-77
2021/11/28 09:30:19;;;;;;;10.60;4.70;;;;;;;2.77;82.97;98931.25;102512;1315;75079;-76
2021/11/28 09:32:46;;;;;;;10.10;5.50;;;;;;;2.81;82.55;98936.38;102290;1315;72398;-76
2021/11/28 09:35:14;;;;;;;8.10;4.70;;;;;;;2.87;82.49;98933.34;102424;1310;73038;-77
2021/11/28 09:37:43;;;;;;;9.00;4.90;;;;;;;2.92;82.62;98927.40;102539;1313;61405;-77
2021/11/28 09:40:13;;;;;;;10.00;4.80;;;;;;;2.95;82.48;98921.86;103147;1316;61186;-77
2021/11/28 09:42:49;;;;;;;13.40;5.30;;;;;;;3.01;82.80;98921.48;103006;1313;76630;-78
2021/11/28 09:45:16;;;;;;;10.20;4.90;;;;;;;3.08;82.15;98919.33;102679;1315;72780;-78
2021/11/28 09:47:45;;;;;;;7.40;5.30;;;;;;;3.11;81.63;98918.01;102285;1315;72750;-76
2021/11/28 09:50:12;;;;;;;10.30;4.00;;;;;;;3.15;81.95;98921.33;102286;1315;61365;-77
2021/11/28 09:52:39;;;;;;;11.40;5.00;;;;;;;3.21;82.24;98919.27;102243;1315;61861;-77
2021/11/28 09:55:10;;;;;;;10.80;4.50;;;;;;;3.29;82.14;98919.13;102242;1315;74637;-77
2021/11/28 09:57:39;;;;;;;10.00;6.30;;;;;;;3.34;81.85;98923.18;102397;1315;72393;-78
2021/11/28 10:00:09;;;;;;;11.10;4.80;;;;;;;3.34;81.69;98921.50;102883;1315;72990;-77
2021/11/28 10:02:36;;;;;;;12.30;5.70;;;;;;;3.31;81.67;98928.02;102420;1316;60913;-76
2021/11/28 10:05:09;;;;;;;11.20;5.10;;;;;;;3.22;81.12;98932.26;102740;1315;61255;-79
2021/11/28 10:07:41;;;;;;;10.60;4.60;;;;;;;3.12;80.49;98929.63;102722;1315;75982;-79
2021/11/28 10:10:10;;;;;;;10.20;5.30;;;;;;;2.99;80.89;98930.30;102979;1315;71361;-79
2021/11/28 10:12:42;;;;;;;10.90;5.00;;;;;;;2.87;81.38;98928.31;102868;1315;73984;-78
2021/11/28 10:15:16;;;;;;;14.60;4.90;;;;;;;2.79;81.80;98924.96;103087;1315;61314;-77
2021/11/28 10:17:43;;;;;;;5.50;2.90;;;;;;;2.75;82.57;98928.77;102951;1315;61292;-78
2021/11/28 10:20:13;;;;;;;10.40;5.20;;;;;;;2.72;82.34;98926.49;103162;1315;75037;-77
2021/11/28 10:22:40;;;;;;;14.50;4.90;;;;;;;2.69;82.51;98919.96;103588;1315;72406;-78
2021/11/28 10:25:31;;;;;;;11.80;5.30;;;;;;;2.67;82.69;98920.38;103413;1315;74205;-78
2021/11/28 10:28:09;;;;;;;11.80;5.50;;;;;;;2.65;83.05;98919.46;103946;1306;61422;-78
2021/11/28 10:30:40;;;;;;;10.20;5.90;;;;;;;2.64;83.21;98925.08;103642;1312;61711;-78
2021/11/28 10:33:17;;;;;;;14.20;6.00;;;;;;;2.63;83.40;98926.86;103952;1314;74979;-78
2021/11/28 10:36:19;;;;;;;9.60;4.90;;;;;;;2.64;83.51;98931.39;103848;1316;71569;-78
2021/11/28 10:38:46;;;;;;;13.10;5.00;;;;;;;2.63;83.76;98928.34;102655;1324;73358;-78
2021/11/28 10:41:20;;;;;;;16.00;6.10;;;;;;;2.61;83.22;98931.81;103668;1315;62571;-78
2021/11/28 10:43:47;;;;;;;7.90;5.80;;;;;;;2.60;83.16;98926.06;103036;1315;61422;-78
2021/11/28 10:46:28;;;;;;;9.90;5.40;;;;;;;2.59;83.48;98923.16;102996;1315;75475;-77
2021/11/28 10:49:23;;;;;;;12.40;5.70;;;;;;;2.57;83.58;98926.70;102459;1315;72319;-78
2021/11/28 10:51:55;;;;;;;9.40;4.10;;;;;;;2.55;83.57;98925.35;102996;1313;73699;-77
2021/11/28 10:54:23;;;;;;;13.50;5.50;;;;;;;2.54;83.81;98927.54;102653;1315;61221;-77
2021/11/28 10:57:14;;;;;;;12.70;6.30;;;;;;;2.56;83.88;98924.66;102250;1315;61593;-74
2021/11/28 10:59:54;;;;;;;13.00;6.90;;;;;;;2.59;83.96;98924.17;102226;1314;75975;-77
2021/11/28 11:02:27;;;;;;;12.40;6.20;;;;;;;2.61;83.92;98927.64;102823;1315;72822;-79
2021/11/28 11:04:57;;;;;;;15.60;6.60;;;;;;;2.61;84.04;98926.61;102666;1316;72937;-79
2021/11/28 11:07:50;;;;;;;12.60;7.20;;;;;;;2.60;83.93;98926.23;102846;1315;62693;-76
2021/11/28 11:10:22;;;;;;;13.90;6.70;;;;;;;2.59;83.73;98923.33;102957;1315;61391;-79
2021/11/28 11:12:49;;;;;;;12.60;6.30;;;;;;;2.60;84.24;98922.76;102615;1315;75930;-78
2021/11/28 11:15:41;;;;;;;10.50;5.30;;;;;;;2.59;84.04;98925.41;102880;1314;72431;-78
2021/11/28 11:18:09;;;;;;;12.40;5.00;;;;;;;2.59;83.87;98928.42;102843;1315;74081;-76
2021/11/28 11:20:39;;;;;;;14.00;5.40;;;;;;;2.57;84.01;98927.60;102848;1315;61290;-77
2021/11/28 11:23:31;;;;;;;9.90;4.10;;;;;;;2.57;84.10;98925.47;102924;1315;61304;-77
2021/11/28 11:26:20;;;;;;;13.30;4.80;;;;;;;2.58;84.68;98921.36;102779;1316;75044;-78
2021/11/28 11:29:10;;;;;;;9.60;4.20;;;;;;;2.62;84.74;98924.42;102893;1314;71570;-76
2021/11/28 11:31:43;;;;;;;11.30;4.50;;;;;;;2.63;84.86;98924.29;102736;1315;73856;-77
2021/11/28 11:34:37;;;;;;;16.60;6.70;;;;;;;2.63;84.72;98923.76;102661;1316;61306;-77
2021/11/28 11:37:03;;;;;;;11.80;6.20;;;;;;;2.63;85.25;98923.20;102744;1316;61784;-76
2021/11/28 11:39:33;;;;;;;11.70;5.80;;;;;;;2.61;85.02;98926.48;102779;1315;76006;-78
2021/11/28 11:42:00;;;;;;;10.20;5.70;;;;;;;2.58;84.97;98922.92;102840;1311;71823;-76